createdAt,value
2023-01-17T00:02:19.090Z,28.50
2023-01-17T00:05:05.724Z,32.28
2023-01-17T00:07:52.623Z,16.02
2023-01-17T00:10:23.529Z,16.63
2023-01-17T00:12:56.898Z,18.25
2023-01-17T00:15:26.524Z,18.45
2023-01-17T00:17:55.290Z,27.65
2023-01-17T00:20:43.939Z,16.02
2023-01-17T00:23:39.746Z,11.68
2023-01-17T00:26:13.803Z,14.20
2023-01-17T00:28:43.442Z,15.85
2023-01-17T00:31:12.725Z,16.40
2023-01-17T00:33:41.196Z,14.40
2023-01-17T00:36:09.641Z,16.15
2023-01-17T00:38:39.534Z,15.65
2023-01-17T00:41:10.008Z,18.77
2023-01-17T00:43:56.211Z,20.40
2023-01-17T00:46:42.565Z,21.40
2023-01-17T00:49:29.419Z,17.08
2023-01-17T00:52:16.060Z,16.20
2023-01-17T00:55:02.708Z,18.48
2023-01-17T00:57:49.369Z,16.45
2023-01-17T01:00:38.655Z,22.02
2023-01-17T01:03:30.064Z,16.30
2023-01-17T01:06:16.915Z,18.10
2023-01-17T01:09:03.353Z,17.50
2023-01-17T01:11:49.996Z,20.75
2023-01-17T01:14:36.885Z,14.65
2023-01-17T01:17:23.717Z,16.83
2023-01-17T01:20:10.464Z,19.63
2023-01-17T01:22:56.990Z,18.92
2023-01-17T01:25:43.359Z,14.43
2023-01-17T01:28:32.061Z,16.15
2023-01-17T01:31:22.286Z,15.80
2023-01-17T01:33:53.913Z,18.23
2023-01-17T01:36:21.979Z,21.13
2023-01-17T01:38:50.511Z,18.10
2023-01-17T01:41:18.780Z,17.40
2023-01-17T01:43:52.155Z,20.45
2023-01-17T01:46:39.391Z,16.08
2023-01-17T01:49:19.551Z,12.55
2023-01-17T01:51:56.109Z,14.75
2023-01-17T01:54:28.791Z,18.92
2023-01-17T01:56:59.457Z,17.30
2023-01-17T01:59:28.184Z,14.85
2023-01-17T02:01:58.429Z,15.68
2023-01-17T02:04:28.624Z,16.70
2023-01-17T02:07:04.219Z,17.58
2023-01-17T02:09:32.350Z,17.75
2023-01-17T02:12:00.709Z,13.40
2023-01-17T02:14:28.965Z,20.02
2023-01-17T02:17:40.229Z,14.40
2023-01-17T02:20:35.583Z,11.93
2023-01-17T02:23:24.492Z,17.48
2023-01-17T02:26:10.876Z,13.65
2023-01-17T02:29:18.151Z,13.70
2023-01-17T02:31:58.442Z,18.30
2023-01-17T02:34:51.859Z,13.73
2023-01-17T02:37:27.208Z,17.02
2023-01-17T02:40:30.529Z,17.02
2023-01-17T02:43:05.827Z,14.63
2023-01-17T02:45:33.748Z,16.48
2023-01-17T02:48:01.662Z,15.80
2023-01-17T02:51:00.368Z,15.68
2023-01-17T02:53:31.294Z,15.57
2023-01-17T02:59:52.283Z,13.65
2023-01-17T03:02:46.413Z,13.02
2023-01-17T03:05:21.344Z,11.57
2023-01-17T03:07:51.345Z,12.77
2023-01-17T03:10:20.637Z,11.52
2023-01-17T03:15:17.852Z,12.23
2023-01-17T03:17:50.195Z,14.40
2023-01-17T03:20:22.577Z,10.35
2023-01-17T03:22:50.803Z,14.45
2023-01-17T03:25:21.701Z,15.95
2023-01-17T03:27:49.706Z,16.02
2023-01-17T03:30:18.045Z,14.48
2023-01-17T03:32:45.986Z,13.77
2023-01-17T03:35:13.960Z,14.57
2023-01-17T03:37:43.276Z,15.35
2023-01-17T03:40:11.528Z,15.25
2023-01-17T03:42:40.074Z,14.48
2023-01-17T03:45:08.559Z,15.13
2023-01-17T03:47:36.724Z,14.45
2023-01-17T03:50:05.740Z,13.90
2023-01-17T03:52:33.775Z,14.23
2023-01-17T03:55:02.848Z,12.65
2023-01-17T03:57:30.655Z,14.02
2023-01-17T03:59:58.710Z,14.35
2023-01-17T04:02:26.614Z,11.23
2023-01-17T04:04:54.894Z,11.38
2023-01-17T04:07:23.263Z,14.95
2023-01-17T04:09:51.323Z,13.90
2023-01-17T04:12:19.352Z,15.60
2023-01-17T04:14:48.387Z,18.83
2023-01-17T04:17:18.970Z,17.25
2023-01-17T04:19:47.718Z,16.23
2023-01-17T04:22:15.722Z,15.50
2023-01-17T04:24:43.818Z,24.90
2023-01-17T04:27:14.472Z,12.70
2023-01-17T04:29:42.622Z,14.90
2023-01-17T04:32:10.688Z,14.70
2023-01-17T04:34:38.686Z,14.07
2023-01-17T04:37:06.644Z,17.85
2023-01-17T04:39:34.539Z,14.00
2023-01-17T04:42:03.183Z,11.02
2023-01-17T04:44:31.103Z,14.60
2023-01-17T04:46:59.039Z,15.95
2023-01-17T04:49:26.827Z,16.92
2023-01-17T04:51:54.866Z,17.42
2023-01-17T04:54:22.854Z,14.13
2023-01-17T04:56:50.675Z,16.67
2023-01-17T04:59:18.737Z,15.10
2023-01-17T05:01:49.691Z,16.98
2023-01-17T05:04:17.839Z,15.52
2023-01-17T05:06:45.801Z,17.40
2023-01-17T05:09:13.744Z,19.48
2023-01-17T05:11:41.656Z,18.70
2023-01-17T05:14:11.007Z,16.17
2023-01-17T05:16:38.956Z,15.10
2023-01-17T05:19:06.952Z,18.95
2023-01-17T05:21:35.018Z,18.55
2023-01-17T05:24:02.922Z,18.10
2023-01-17T05:26:31.144Z,17.58
2023-01-17T05:28:59.018Z,16.40
2023-01-17T05:31:27.069Z,15.75
2023-01-17T05:33:55.018Z,14.75
2023-01-17T05:36:22.846Z,15.52
2023-01-17T05:38:50.766Z,12.95
2023-01-17T05:41:18.677Z,12.23
2023-01-17T05:43:46.873Z,16.52
2023-01-17T05:46:16.429Z,16.05
2023-01-17T05:48:44.470Z,15.73
2023-01-17T05:51:12.454Z,15.73
2023-01-17T05:53:40.471Z,15.00
2023-01-17T05:56:08.421Z,15.80
2023-01-17T05:58:36.480Z,14.93
2023-01-17T06:01:04.428Z,18.70
2023-01-17T06:03:32.364Z,14.93
2023-01-17T06:06:00.336Z,16.30
2023-01-17T06:08:28.363Z,15.07
2023-01-17T06:10:59.664Z,16.20
2023-01-17T06:13:27.655Z,15.95
2023-01-17T06:15:57.924Z,16.77
2023-01-17T06:18:26.027Z,20.42
2023-01-17T06:20:55.349Z,26.92
2023-01-17T06:23:24.125Z,24.65
2023-01-17T06:25:52.343Z,18.98
2023-01-17T06:28:22.944Z,13.88
2023-01-17T06:30:53.725Z,23.05
2023-01-17T06:33:21.696Z,17.13
2023-01-17T06:35:51.537Z,14.02
2023-01-17T06:38:20.150Z,13.68
2023-01-17T06:40:48.292Z,13.32
2023-01-17T06:43:16.436Z,15.60
2023-01-17T06:45:44.380Z,18.50
2023-01-17T06:48:12.408Z,13.45
2023-01-17T06:50:40.440Z,14.98
2023-01-17T06:53:08.385Z,15.13
2023-01-17T06:55:39.806Z,13.30
2023-01-17T06:58:09.569Z,13.88
2023-01-17T07:00:40.284Z,12.45
2023-01-17T07:03:21.020Z,14.60
2023-01-17T07:05:49.464Z,14.98
2023-01-17T07:08:18.697Z,15.73
2023-01-17T07:10:48.898Z,16.65
2023-01-17T07:13:17.065Z,26.75
2023-01-17T07:15:44.992Z,22.33
2023-01-17T07:18:13.358Z,18.02
2023-01-17T07:20:44.214Z,16.17
2023-01-17T07:23:12.557Z,16.35
2023-01-17T07:25:40.580Z,37.10
2023-01-17T07:28:09.165Z,43.90
2023-01-17T07:30:37.068Z,40.67
2023-01-17T07:33:05.740Z,26.73
2023-01-17T07:35:34.415Z,21.88
2023-01-17T07:38:02.475Z,15.85
2023-01-17T07:40:30.817Z,15.07
2023-01-17T07:43:02.621Z,13.25
2023-01-17T07:45:32.436Z,11.88
2023-01-17T07:48:00.658Z,13.18
2023-01-17T07:50:28.541Z,13.68
2023-01-17T07:52:56.659Z,12.85
2023-01-17T07:55:24.572Z,13.18
2023-01-17T07:57:52.491Z,11.45
2023-01-17T08:00:21.617Z,20.25
2023-01-17T08:02:49.991Z,17.90
2023-01-17T08:05:18.062Z,16.92
2023-01-17T08:07:45.935Z,15.93
2023-01-17T08:10:18.196Z,14.00
2023-01-17T08:12:48.264Z,12.73
2023-01-17T08:15:18.022Z,10.63
2023-01-17T08:17:49.947Z,13.27
2023-01-17T08:20:18.117Z,11.98
2023-01-17T08:22:46.145Z,13.00
2023-01-17T08:25:14.200Z,14.13
2023-01-17T08:27:42.149Z,11.23
2023-01-17T08:30:10.927Z,10.10
2023-01-17T08:32:41.507Z,11.32
2023-01-17T08:35:10.487Z,10.52
2023-01-17T08:37:39.320Z,10.80
2023-01-17T08:40:09.028Z,36.58
2023-01-17T08:42:40.410Z,13.90
2023-01-17T08:45:10.273Z,10.20
2023-01-17T08:47:38.373Z,42.17
2023-01-17T08:50:07.227Z,28.35
2023-01-17T08:52:35.253Z,12.60
2023-01-17T08:55:03.869Z,27.20
2023-01-17T08:57:33.083Z,14.43
2023-01-17T09:04:56.397Z,22.92
2023-01-17T09:07:25.394Z,25.25
2023-01-17T09:09:53.866Z,19.77
2023-01-17T09:12:22.709Z,57.97
2023-01-17T09:19:47.718Z,25.77
2023-01-17T09:22:15.956Z,24.10
2023-01-17T09:24:44.336Z,18.90
2023-01-17T09:27:12.263Z,16.20
2023-01-17T09:29:40.260Z,29.40
2023-01-17T09:32:08.219Z,47.75
2023-01-17T09:34:36.140Z,34.42
2023-01-17T09:37:04.362Z,23.33
2023-01-17T09:39:32.227Z,18.90
2023-01-17T09:42:00.117Z,18.17
2023-01-17T09:44:35.867Z,18.80
2023-01-17T09:47:16.455Z,23.17
2023-01-17T09:49:48.060Z,15.70
2023-01-17T09:52:21.301Z,21.88
2023-01-17T09:54:51.102Z,18.40
2023-01-17T09:57:46.807Z,19.70
2023-01-17T10:00:49.888Z,34.92
2023-01-17T10:03:26.875Z,45.17
2023-01-17T10:06:27.975Z,31.35
2023-01-17T10:09:40.410Z,22.73
2023-01-17T10:12:18.896Z,30.58
2023-01-17T10:15:07.409Z,24.85
2023-01-17T10:18:06.541Z,44.22
2023-01-17T10:20:49.809Z,33.67
2023-01-17T10:23:31.034Z,18.23
2023-01-17T10:26:05.146Z,21.00
2023-01-17T10:28:41.041Z,19.02
2023-01-17T10:31:16.838Z,16.33
2023-01-17T10:34:12.171Z,16.50
2023-01-17T10:36:44.943Z,23.77
2023-01-17T10:39:24.642Z,13.85
2023-01-17T10:41:56.799Z,15.93
2023-01-17T10:44:59.585Z,14.98
2023-01-17T10:47:33.465Z,35.53
2023-01-17T10:50:05.404Z,35.60
2023-01-17T10:52:53.138Z,40.35
2023-01-17T10:55:39.210Z,22.63
2023-01-17T10:58:12.696Z,31.40
2023-01-17T11:00:45.612Z,41.28
2023-01-17T11:03:16.494Z,37.97
2023-01-17T11:05:44.654Z,31.73
2023-01-17T11:08:15.839Z,31.63
2023-01-17T11:10:47.487Z,18.17
2023-01-17T11:13:24.118Z,60.00
2023-01-17T11:15:57.895Z,38.75
2023-01-17T11:18:29.876Z,38.85
2023-01-17T11:21:16.185Z,78.07
2023-01-17T11:23:47.073Z,43.72
2023-01-17T11:26:26.406Z,56.05
2023-01-17T11:29:26.143Z,19.70
2023-01-17T11:31:58.793Z,13.13
2023-01-17T11:34:32.279Z,17.08
2023-01-17T11:37:18.679Z,12.25
2023-01-17T11:39:50.313Z,12.45
2023-01-17T11:42:33.886Z,16.25
2023-01-17T11:45:38.005Z,16.42
2023-01-17T11:48:09.014Z,16.08
2023-01-17T11:50:46.772Z,12.43
2023-01-17T11:53:28.239Z,9.45
2023-01-17T11:56:06.219Z,8.75
2023-01-17T11:58:41.407Z,6.57
2023-01-17T12:01:23.211Z,9.00
2023-01-17T12:04:24.438Z,12.35
2023-01-17T12:07:04.514Z,21.35
2023-01-17T12:09:48.135Z,16.30
2023-01-17T12:12:42.548Z,6.28
2023-01-17T12:15:22.669Z,6.85
2023-01-17T12:18:12.149Z,8.82
2023-01-17T12:20:41.726Z,45.33
2023-01-17T12:23:34.042Z,14.63
2023-01-17T12:26:07.962Z,10.25
2023-01-17T12:29:04.842Z,28.55
2023-01-17T12:31:54.337Z,11.45
2023-01-17T12:34:32.376Z,15.35
2023-01-17T12:37:18.275Z,11.80
2023-01-17T12:40:18.142Z,33.92
2023-01-17T12:43:26.890Z,24.77
2023-01-17T12:45:54.940Z,29.33
2023-01-17T12:48:29.578Z,30.67
2023-01-17T12:51:05.274Z,30.08
2023-01-17T12:53:51.870Z,27.65
2023-01-17T12:56:29.941Z,29.98
2023-01-17T12:59:12.800Z,29.35
2023-01-17T13:01:57.743Z,10.63
2023-01-17T13:04:57.737Z,13.52
2023-01-17T13:08:08.879Z,11.48
2023-01-17T13:11:04.271Z,15.75
2023-01-17T13:13:33.443Z,24.25
2023-01-17T13:16:11.992Z,10.80
2023-01-17T13:18:46.653Z,10.02
2023-01-17T13:21:32.331Z,8.90
2023-01-17T13:24:02.305Z,11.50
2023-01-17T13:26:36.805Z,20.25
2023-01-17T13:29:43.489Z,19.23
2023-01-17T13:32:23.479Z,11.25
2023-01-17T13:35:12.587Z,12.38
2023-01-17T13:37:59.083Z,9.85
2023-01-17T13:40:52.963Z,12.80
2023-01-17T13:43:27.882Z,10.52
2023-01-17T13:46:00.036Z,13.30
2023-01-17T13:48:41.118Z,12.45
2023-01-17T13:51:10.446Z,10.63
2023-01-17T13:53:41.231Z,12.55
2023-01-17T13:56:29.588Z,15.07
2023-01-17T13:59:03.439Z,11.02
2023-01-17T14:01:38.754Z,10.52
2023-01-17T14:04:12.138Z,16.60
2023-01-17T14:06:44.799Z,13.07
2023-01-17T14:09:27.844Z,10.70
2023-01-17T14:12:24.874Z,14.05
2023-01-17T14:14:55.931Z,10.77
2023-01-17T14:17:25.836Z,15.10
2023-01-17T14:19:58.401Z,11.52
2023-01-17T14:22:41.826Z,13.18
2023-01-17T14:25:15.196Z,14.27
2023-01-17T14:27:43.216Z,14.35
2023-01-17T14:30:17.908Z,11.93
2023-01-17T14:33:09.079Z,10.50
2023-01-17T14:35:49.739Z,15.07
2023-01-17T14:38:23.925Z,11.88
2023-01-17T14:40:55.825Z,13.80
2023-01-17T14:43:26.842Z,16.35
2023-01-17T14:46:04.401Z,14.25
2023-01-17T14:48:32.489Z,15.70
2023-01-17T14:51:01.393Z,16.58
2023-01-17T14:53:33.610Z,16.63
2023-01-17T14:56:17.116Z,13.90
2023-01-17T14:58:46.852Z,9.48
2023-01-17T15:01:20.236Z,12.50
2023-01-17T15:03:58.562Z,9.73
2023-01-17T15:06:46.822Z,9.57
2023-01-17T15:09:23.008Z,25.35
2023-01-17T15:11:53.594Z,55.50
2023-01-17T15:14:38.146Z,61.30
2023-01-17T15:17:26.637Z,54.33
2023-01-17T15:19:59.845Z,39.42
2023-01-17T15:22:30.060Z,11.80
2023-01-17T15:27:41.845Z,18.95
2023-01-17T15:52:27.444Z,25.92
2023-01-17T15:57:56.169Z,12.80
2023-01-17T16:00:38.005Z,14.90
2023-01-17T16:03:25.876Z,12.65
2023-01-17T16:05:57.204Z,13.57
2023-01-17T16:08:40.318Z,12.05
2023-01-17T16:11:11.916Z,12.30
2023-01-17T16:13:42.646Z,14.30
2023-01-17T16:16:12.254Z,11.02
2023-01-17T16:18:41.493Z,11.35
2023-01-17T16:21:17.430Z,10.60
2023-01-17T16:23:46.527Z,10.00
2023-01-17T16:26:15.840Z,11.40
2023-01-17T16:28:44.247Z,14.25
2023-01-17T16:31:12.725Z,13.40
2023-01-17T16:33:42.294Z,23.08
2023-01-17T16:36:15.508Z,32.78
2023-01-17T16:38:45.584Z,20.65
2023-01-17T16:41:13.703Z,19.70
2023-01-17T16:43:42.141Z,15.55
2023-01-17T16:46:12.491Z,19.02
2023-01-17T16:48:41.020Z,25.10
2023-01-17T16:51:09.582Z,23.80
2023-01-17T16:53:38.994Z,34.60
2023-01-17T16:56:17.480Z,19.42
2023-01-17T16:58:48.279Z,20.08
2023-01-17T17:01:21.231Z,20.45
2023-01-17T17:03:49.932Z,22.17
2023-01-17T17:06:18.555Z,34.22
2023-01-17T17:08:47.847Z,27.80
2023-01-17T17:11:23.185Z,103.40
2023-01-17T17:13:52.440Z,67.38
2023-01-17T17:16:24.503Z,39.97
2023-01-17T17:18:59.178Z,33.70
2023-01-17T17:21:29.407Z,28.17
2023-01-17T17:24:00.391Z,20.92
2023-01-17T17:26:32.652Z,21.92
2023-01-17T17:29:02.174Z,16.52
2023-01-17T17:31:30.589Z,22.02
2023-01-17T17:34:01.622Z,21.63
2023-01-17T17:36:30.602Z,23.52
2023-01-17T17:38:59.546Z,25.63
2023-01-17T17:41:36.272Z,20.58
2023-01-17T17:44:05.486Z,16.63
2023-01-17T17:46:34.165Z,16.70
2023-01-17T17:49:02.634Z,13.65
2023-01-17T17:51:36.544Z,15.48
2023-01-17T17:54:07.668Z,90.45
2023-01-17T17:56:38.143Z,26.65
2023-01-17T17:59:09.439Z,18.70
2023-01-17T18:01:41.505Z,16.92
2023-01-17T18:04:10.147Z,18.48
2023-01-17T18:06:39.696Z,20.38
2023-01-17T18:09:10.216Z,24.90
2023-01-17T18:11:42.987Z,28.63
2023-01-17T18:14:14.902Z,36.95
2023-01-17T18:16:45.221Z,42.13
2023-01-17T18:19:24.377Z,49.38
2023-01-17T18:21:54.178Z,68.05
2023-01-17T18:24:24.333Z,51.88
2023-01-17T18:26:56.268Z,42.22
2023-01-17T18:29:26.360Z,81.45
2023-01-17T18:31:55.447Z,67.45
2023-01-17T18:34:30.269Z,57.80
2023-01-17T18:36:59.119Z,59.17
2023-01-17T18:39:29.880Z,41.28
2023-01-17T18:41:59.053Z,56.05
2023-01-17T18:47:04.876Z,46.85
2023-01-17T18:49:34.401Z,33.33
2023-01-17T18:52:02.694Z,33.05
2023-01-17T18:54:32.362Z,40.65
2023-01-17T18:57:00.650Z,36.70
2023-01-17T18:59:29.342Z,91.28
2023-01-17T19:01:59.205Z,109.63
2023-01-17T19:04:28.942Z,39.63
2023-01-17T19:06:57.090Z,14.55
2023-01-17T19:09:25.206Z,20.80
2023-01-17T19:11:53.194Z,23.58
2023-01-17T19:14:21.240Z,28.38
2023-01-17T19:16:49.179Z,31.90
2023-01-17T19:19:17.079Z,47.80
2023-01-17T19:21:45.081Z,57.10
2023-01-17T19:24:13.478Z,425.75
2023-01-17T19:26:42.411Z,113.75
2023-01-17T19:29:10.702Z,116.43
2023-01-17T19:31:43.139Z,111.25
2023-01-17T19:34:14.098Z,82.55
2023-01-17T19:36:42.818Z,78.63
2023-01-17T19:39:11.099Z,145.73
2023-01-17T19:41:44.019Z,70.35
2023-01-17T19:44:13.833Z,79.65
2023-01-17T19:46:41.939Z,69.32
2023-01-17T19:49:10.098Z,62.55
2023-01-17T19:51:39.882Z,56.35
2023-01-17T19:54:08.598Z,66.85
2023-01-17T19:56:36.983Z,63.42
2023-01-17T19:59:05.055Z,98.00
2023-01-17T20:01:34.507Z,80.55
2023-01-17T20:04:03.735Z,83.70
2023-01-17T20:06:34.835Z,72.35
2023-01-17T20:09:04.808Z,91.60
2023-01-17T20:11:33.120Z,88.70
2023-01-17T20:14:01.154Z,123.53
2023-01-17T20:16:31.219Z,52.55
2023-01-17T20:19:00.458Z,43.67
2023-01-17T20:21:30.576Z,76.93
2023-01-17T20:24:00.304Z,72.22
2023-01-17T20:26:35.023Z,133.90
2023-01-17T20:29:10.787Z,110.25
2023-01-17T20:31:41.751Z,89.90
2023-01-17T20:34:13.076Z,100.50
2023-01-17T20:36:42.303Z,95.10
2023-01-17T20:41:45.070Z,89.55
2023-01-17T20:44:15.672Z,95.88
2023-01-17T20:46:44.588Z,85.35
2023-01-17T20:49:19.186Z,84.68
2023-01-17T20:51:48.453Z,89.95
2023-01-17T20:54:18.622Z,77.13
2023-01-17T20:59:40.494Z,62.38
2023-01-17T21:04:52.561Z,41.63
2023-01-17T21:07:20.999Z,22.60
2023-01-17T21:09:49.376Z,28.40
2023-01-17T21:12:17.791Z,25.42
2023-01-17T21:14:45.756Z,24.48
2023-01-17T21:17:16.494Z,16.88
2023-01-17T21:19:44.557Z,26.00
2023-01-17T21:22:16.955Z,27.00
2023-01-17T21:24:44.860Z,22.25
2023-01-17T21:27:13.326Z,13.07
2023-01-17T21:29:41.805Z,14.25
2023-01-17T21:32:10.985Z,11.85
2023-01-17T21:34:39.447Z,11.85
2023-01-17T21:37:07.689Z,12.52
2023-01-17T21:39:35.926Z,8.18
2023-01-17T21:42:03.984Z,17.13
2023-01-17T21:44:36.486Z,19.27
2023-01-17T21:47:04.673Z,20.60
2023-01-17T21:49:32.796Z,9.15
2023-01-17T21:52:00.829Z,8.27
2023-01-17T21:54:49.116Z,13.75
2023-01-17T21:57:38.890Z,8.40
2023-01-17T22:00:10.815Z,8.88
2023-01-17T22:02:45.088Z,12.20
2023-01-17T22:05:14.414Z,15.38
2023-01-17T22:08:01.244Z,9.90
2023-01-17T22:10:29.645Z,11.23
2023-01-17T22:12:57.637Z,10.10
2023-01-17T22:15:25.970Z,11.10
2023-01-17T22:17:54.275Z,11.40
2023-01-17T22:20:22.479Z,11.48
2023-01-17T22:22:50.502Z,12.80
2023-01-17T22:25:18.411Z,12.63
2023-01-17T22:27:46.413Z,12.52
2023-01-17T22:30:14.537Z,21.17
2023-01-17T22:32:42.591Z,11.55
2023-01-17T22:35:10.460Z,12.70
2023-01-17T22:37:38.474Z,12.05
2023-01-17T22:40:07.190Z,12.73
2023-01-17T22:42:35.251Z,13.93
2023-01-17T22:45:03.442Z,14.48
2023-01-17T22:47:33.299Z,36.35
2023-01-17T22:50:01.147Z,14.68
2023-01-17T22:52:29.312Z,17.52
2023-01-17T22:54:57.237Z,15.60
2023-01-17T22:57:25.228Z,15.60
2023-01-17T22:59:53.273Z,15.52
2023-01-17T23:02:21.461Z,17.13
2023-01-17T23:04:49.505Z,18.27
2023-01-17T23:07:17.791Z,18.67
2023-01-17T23:09:45.830Z,30.33
2023-01-17T23:12:13.635Z,25.60
2023-01-17T23:15:03.358Z,19.88
2023-01-17T23:17:49.854Z,20.35
2023-01-17T23:20:17.689Z,11.70
2023-01-17T23:22:45.646Z,9.80
2023-01-17T23:25:14.380Z,14.90
2023-01-17T23:28:05.916Z,14.43
2023-01-17T23:30:36.993Z,11.07
2023-01-17T23:33:10.406Z,14.02
2023-01-17T23:35:43.406Z,10.05
2023-01-17T23:38:30.984Z,9.18
2023-01-17T23:41:23.011Z,9.07
2023-01-17T23:43:55.582Z,14.88
2023-01-17T23:46:25.557Z,19.58
2023-01-17T23:48:55.228Z,15.73
2023-01-17T23:51:23.201Z,16.02
2023-01-17T23:53:55.351Z,18.20
2023-01-17T23:56:27.157Z,16.20
2023-01-17T23:58:54.825Z,9.52
